エドモントン の空港の天気 - METARとTAF

エドモントン国際空港 ( CYEG / YEG ) - カナダ アルバータ州Edmonton Capital Region
飛行場実況気象(Metar)
観測時間03/09 00:00 MST (03/09 07:00 UTC)
風向・風速南南東 4m/s
視程6450m
天気現象もや
全天を覆う雲 雲底高度 120m
気温-3℃
湿度100%
気圧1020hPa
METARCYEG 090700Z 16007KT 4SM BR OVC004 M03/M03 A3001 RMK ST8 SLP200
過去の天気等 Google飛行場航空写真 Wunderground天気予報

過去48時間のMETAR

飛行場予報(TAF)
発表時間: 3/08 22:47 MST (3/09 05:47 UTC)
予報対象時間: 8日23時 MST ~ 9日23時 MST
風向・風速南南東 3m/s
視程10km以上
少しの雲 雲底高度 210m
全天を覆う雲 雲底高度 300m
8日23時 MST ~ 9日1時 MST に一時的に
視程8050m
天気現象もや
全天の8割程度の雲 雲底高度 210m
全天を覆う雲 雲底高度 300m
9日1時 MST から
風向・風速南 3m/s
視程10km以上
天気現象もや
全天の4割程度の雲 雲底高度 120m
全天を覆う雲 雲底高度 240m
9日1時 MST ~ 9日9時 MST に一時的に
視程8850m
天気現象もや
全天の8割程度の雲 雲底高度 120m
全天を覆う雲 雲底高度 180m
9日9時 MST から
風向・風速南 4m/s
視程10km以上
全天の8割程度の雲 雲底高度 300m
9日10時 MST ~ 9日12時 MST に徐々に
風向・風速南南西 3m/s
全天の4割程度の雲 雲底高度 300m
9日12時 MST から
風向・風速南南西 4m/s
視程10km以上
少しの雲 雲底高度 300m
9日14時 MST から
風向・風速南東 3m/s
視程10km以上
全天の4割程度の雲 雲底高度 6400m
9日20時 MST から
風向・風速南 4m/s
視程10km以上
少しの雲 雲底高度 3960m
9日21時 MST ~ 9日23時 MST に徐々に
風向・風速西南西 4m/s
TAF CYEG 090547Z 0906/1006 15006KT P6SM FEW007 OVC010
TEMPO 0906/0908 5SM BR BKN007 OVC010
FM090800 17006KT 6SM BR SCT004 OVC008
TEMPO 0908/0916 11/2SM BR BKN004 OVC006
FM091600 18008KT P6SM BKN010
BECMG 0917/0919 21005KT SCT010
FM091900 21008KT P6SM FEW010
FM092100 14005KT P6SM SCT210
FM100300 18008KT P6SM FEW130
BECMG 1004/1006 25008KT RMK NXT FCST BY 090900Z